createdAt,value
2019-03-08T00:01:35.730Z,1.50
2019-03-08T00:04:06.416Z,3.80
2019-03-08T00:06:37.010Z,7.70
2019-03-08T00:09:09.040Z,1.37
2019-03-08T00:11:39.748Z,6.33
2019-03-08T00:14:10.384Z,8.50
2019-03-08T00:16:41.264Z,2.87
2019-03-08T00:19:11.972Z,5.40
2019-03-08T00:21:42.597Z,5.33
2019-03-08T00:24:13.252Z,6.47
2019-03-08T00:26:43.813Z,5.43
2019-03-08T00:29:14.375Z,3.40
2019-03-08T00:31:44.933Z,4.03
2019-03-08T00:34:15.732Z,1.67
2019-03-08T00:36:46.567Z,4.47
2019-03-08T00:39:17.277Z,2.80
2019-03-08T00:41:47.958Z,2.10
2019-03-08T00:44:18.592Z,5.30
2019-03-08T00:46:49.323Z,2.20
2019-03-08T00:49:19.867Z,3.47
2019-03-08T00:51:50.945Z,6.63
2019-03-08T00:54:21.485Z,2.97
2019-03-08T00:56:52.164Z,3.53
2019-03-08T00:59:22.796Z,7.20
2019-03-08T01:01:53.459Z,9.07
2019-03-08T01:04:23.980Z,3.90
2019-03-08T01:06:54.612Z,6.10
2019-03-08T01:09:25.121Z,5.57
2019-03-08T01:11:55.889Z,4.83
2019-03-08T01:14:26.440Z,3.90
2019-03-08T01:16:57.713Z,4.90
2019-03-08T01:19:28.425Z,1.50
2019-03-08T01:21:59.112Z,2.60
2019-03-08T01:24:29.750Z,3.63
2019-03-08T01:27:00.304Z,2.40
2019-03-08T01:29:30.888Z,5.00
2019-03-08T01:32:01.426Z,3.87
2019-03-08T01:34:32.039Z,5.60
2019-03-08T01:37:02.726Z,5.13
2019-03-08T01:39:33.342Z,7.90
2019-03-08T01:42:03.875Z,1.53
2019-03-08T01:44:34.459Z,4.07
2019-03-08T01:47:05.641Z,4.23
2019-03-08T01:49:36.424Z,2.43
2019-03-08T01:52:06.948Z,2.70
2019-03-08T01:54:37.501Z,3.07
2019-03-08T01:57:08.060Z,6.33
2019-03-08T01:59:38.947Z,2.90
2019-03-08T02:02:10.520Z,4.57
2019-03-08T02:04:41.340Z,2.03
2019-03-08T02:07:11.981Z,4.97
2019-03-08T02:09:42.572Z,2.80
2019-03-08T02:12:13.253Z,6.53
2019-03-08T02:14:44.100Z,4.27
2019-03-08T02:17:14.754Z,1.80
2019-03-08T02:19:45.361Z,4.33
2019-03-08T02:22:15.974Z,3.30
2019-03-08T02:24:46.780Z,5.90
2019-03-08T02:27:17.408Z,2.30
2019-03-08T02:29:47.955Z,8.43
2019-03-08T02:32:18.570Z,7.27
2019-03-08T02:34:49.151Z,4.73
2019-03-08T02:37:20.100Z,2.37
2019-03-08T02:39:50.897Z,4.37
2019-03-08T02:42:21.468Z,4.07
2019-03-08T02:44:52.202Z,4.90
2019-03-08T02:47:22.771Z,3.37
2019-03-08T02:49:53.653Z,5.63
2019-03-08T02:52:24.259Z,5.87
2019-03-08T02:54:54.812Z,5.63
2019-03-08T02:57:25.468Z,4.30
2019-03-08T02:59:56.227Z,4.07
2019-03-08T03:02:26.857Z,2.97
2019-03-08T03:04:57.460Z,2.60
2019-03-08T03:07:28.305Z,9.50
2019-03-08T03:09:58.897Z,5.00
2019-03-08T03:12:29.744Z,2.30
2019-03-08T03:15:00.756Z,2.97
2019-03-08T03:17:31.393Z,3.77
2019-03-08T03:20:02.018Z,6.50
2019-03-08T03:22:32.620Z,2.20
2019-03-08T03:25:03.249Z,3.23
2019-03-08T03:27:34.073Z,4.20
2019-03-08T03:30:05.445Z,4.73
2019-03-08T03:32:35.966Z,3.20
2019-03-08T03:35:06.764Z,3.17
2019-03-08T03:37:37.364Z,2.77
2019-03-08T03:40:09.881Z,2.80
2019-03-08T03:42:40.430Z,3.80
2019-03-08T03:45:12.052Z,2.60
2019-03-08T03:47:42.604Z,3.27
2019-03-08T03:50:13.413Z,3.70
2019-03-08T03:52:44.361Z,3.40
2019-03-08T03:55:15.383Z,5.83
2019-03-08T03:57:45.923Z,2.83
2019-03-08T04:00:17.116Z,3.10
2019-03-08T04:02:47.940Z,3.63
2019-03-08T04:05:18.737Z,3.23
2019-03-08T04:07:49.265Z,3.00
2019-03-08T04:10:20.044Z,4.20
2019-03-08T04:12:51.555Z,4.10
2019-03-08T04:15:22.156Z,3.60
2019-03-08T04:17:52.797Z,1.93
2019-03-08T04:20:23.579Z,2.20
2019-03-08T04:22:54.211Z,3.63
2019-03-08T04:25:24.946Z,2.57
2019-03-08T04:27:55.552Z,3.90
2019-03-08T04:30:26.232Z,2.20
2019-03-08T04:32:56.765Z,5.57
2019-03-08T04:35:27.367Z,2.90
2019-03-08T04:37:58.119Z,3.90
2019-03-08T04:40:29.095Z,3.00
2019-03-08T04:42:59.823Z,6.97
2019-03-08T04:45:30.457Z,5.07
2019-03-08T04:48:00.966Z,3.60
2019-03-08T04:50:31.574Z,5.20
2019-03-08T04:53:02.144Z,6.37
2019-03-08T04:55:33.222Z,3.30
2019-03-08T04:58:03.809Z,5.23
2019-03-08T05:00:34.299Z,4.10
2019-03-08T05:03:04.843Z,4.37
2019-03-08T05:05:35.373Z,6.90
2019-03-08T05:08:06.612Z,3.70
2019-03-08T05:10:37.122Z,4.30
2019-03-08T05:13:07.664Z,4.40
2019-03-08T05:15:38.228Z,3.97
2019-03-08T05:18:08.742Z,5.33
2019-03-08T05:20:39.371Z,3.20
2019-03-08T05:23:10.228Z,3.60
2019-03-08T05:25:40.768Z,3.60
2019-03-08T05:28:11.322Z,3.83
2019-03-08T05:30:41.873Z,2.70
2019-03-08T05:33:12.376Z,10.77
2019-03-08T05:35:42.941Z,5.40
2019-03-08T05:38:13.454Z,6.07
2019-03-08T05:40:43.988Z,3.50
2019-03-08T05:43:14.535Z,7.40
2019-03-08T05:45:45.109Z,5.27
2019-03-08T05:48:15.631Z,7.10
2019-03-08T05:50:46.164Z,10.33
2019-03-08T05:53:16.767Z,6.87
2019-03-08T05:55:47.306Z,7.27
2019-03-08T05:58:17.869Z,5.13
2019-03-08T06:00:48.460Z,6.90
2019-03-08T06:03:19.235Z,4.07
2019-03-08T06:05:49.768Z,11.57
2019-03-08T06:08:20.300Z,5.40
2019-03-08T06:10:50.876Z,4.60
2019-03-08T06:13:21.808Z,6.17
2019-03-08T06:15:52.346Z,3.73
2019-03-08T06:18:22.832Z,6.70
2019-03-08T06:20:53.412Z,7.63
2019-03-08T06:23:24.088Z,3.90
2019-03-08T06:25:54.695Z,6.33
2019-03-08T06:28:25.272Z,9.60
2019-03-08T06:30:55.858Z,5.60
2019-03-08T06:33:26.767Z,10.10
2019-03-08T06:35:57.363Z,3.60
2019-03-08T06:38:28.212Z,6.63
2019-03-08T06:40:59.858Z,10.87
2019-03-08T06:43:30.419Z,10.80
2019-03-08T06:46:01.106Z,5.60
2019-03-08T06:48:31.651Z,10.77
2019-03-08T06:51:02.197Z,9.23
2019-03-08T06:53:32.962Z,8.07
2019-03-08T06:56:03.484Z,9.50
2019-03-08T06:59:02.495Z,17.13
2019-03-08T07:01:39.216Z,12.40
2019-03-08T07:04:09.807Z,22.53
2019-03-08T07:06:40.472Z,12.50
2019-03-08T07:09:10.988Z,9.93
2019-03-08T07:11:41.527Z,10.70
2019-03-08T07:14:12.233Z,13.57
2019-03-08T07:16:45.209Z,10.70
2019-03-08T07:19:15.925Z,13.70
2019-03-08T07:22:14.872Z,15.03
2019-03-08T07:25:03.397Z,5.40
2019-03-08T07:27:45.737Z,6.50
2019-03-08T07:30:34.204Z,11.00
2019-03-08T07:33:39.289Z,4.33
2019-03-08T07:36:16.862Z,8.83
2019-03-08T07:39:13.053Z,3.83
2019-03-08T07:42:09.320Z,4.33
2019-03-08T07:44:58.704Z,6.40
2019-03-08T07:47:37.769Z,7.33
2019-03-08T07:50:32.139Z,6.67
2019-03-08T07:53:34.405Z,9.70
2019-03-08T07:56:13.143Z,6.83
2019-03-08T07:58:57.498Z,8.90
2019-03-08T08:01:50.093Z,7.77
2019-03-08T08:04:36.312Z,9.60
2019-03-08T08:07:38.068Z,9.30
2019-03-08T08:10:37.192Z,13.43
2019-03-08T08:13:21.528Z,14.00
2019-03-08T08:16:26.931Z,11.70
2019-03-08T08:19:07.040Z,18.97
2019-03-08T08:21:46.844Z,16.03
2019-03-08T08:24:39.247Z,20.73
2019-03-08T08:27:22.628Z,18.87
2019-03-08T08:30:24.596Z,14.27
2019-03-08T08:33:12.142Z,8.30
2019-03-08T08:36:00.744Z,15.20
2019-03-08T08:38:56.538Z,12.30
2019-03-08T08:41:33.489Z,12.77
2019-03-08T08:44:32.461Z,12.83
2019-03-08T08:47:20.792Z,9.60
2019-03-08T08:50:19.454Z,21.33
2019-03-08T08:53:11.960Z,16.00
2019-03-08T08:56:00.217Z,13.27
2019-03-08T08:58:38.021Z,20.80
2019-03-08T09:01:18.549Z,17.77
2019-03-08T09:03:58.195Z,18.97
2019-03-08T09:06:47.053Z,20.50
2019-03-08T09:09:23.974Z,20.87
2019-03-08T09:12:09.000Z,18.30
2019-03-08T09:14:52.022Z,16.03
2019-03-08T09:17:43.912Z,21.17
2019-03-08T09:20:29.971Z,16.47
2019-03-08T09:23:06.396Z,19.97
2019-03-08T09:25:43.587Z,24.87
2019-03-08T09:28:39.097Z,15.40
2019-03-08T09:31:20.880Z,21.33
2019-03-08T09:34:17.276Z,19.33
2019-03-08T09:36:56.364Z,29.50
2019-03-08T09:39:43.104Z,20.37
2019-03-08T09:42:24.250Z,15.40
2019-03-08T09:45:04.069Z,27.70
2019-03-08T09:47:50.423Z,16.23
2019-03-08T09:50:42.899Z,21.57
2019-03-08T09:53:31.405Z,18.17
2019-03-08T09:56:09.761Z,18.60
2019-03-08T09:58:59.595Z,17.80
2019-03-08T10:01:48.352Z,17.43
2019-03-08T10:04:28.297Z,13.27
2019-03-08T10:07:07.658Z,23.93
2019-03-08T10:10:06.960Z,15.13
2019-03-08T10:12:46.909Z,11.40
2019-03-08T10:15:36.005Z,18.60
2019-03-08T10:18:32.035Z,12.70
2019-03-08T10:21:33.618Z,14.00
2019-03-08T10:24:26.294Z,9.60
2019-03-08T10:27:14.926Z,17.43
2019-03-08T10:29:55.030Z,14.83
2019-03-08T10:32:57.065Z,9.33
2019-03-08T10:35:55.802Z,10.20
2019-03-08T10:38:48.738Z,11.50
2019-03-08T10:41:38.546Z,7.53
2019-03-08T10:44:28.326Z,7.70
2019-03-08T10:47:20.844Z,12.63
2019-03-08T10:50:13.857Z,9.90
2019-03-08T10:52:49.769Z,9.70
2019-03-08T10:55:43.719Z,10.17
2019-03-08T10:58:33.384Z,12.13
2019-03-08T11:01:23.272Z,14.03
2019-03-08T11:04:00.586Z,11.80
2019-03-08T11:06:43.679Z,10.03
2019-03-08T11:09:35.356Z,9.50
2019-03-08T11:12:23.637Z,11.23
2019-03-08T11:15:23.907Z,9.67
2019-03-08T11:18:03.946Z,12.20
2019-03-08T11:20:52.380Z,11.20
2019-03-08T11:23:33.785Z,7.57
2019-03-08T11:26:18.776Z,17.23
2019-03-08T11:29:07.750Z,13.40
2019-03-08T11:31:50.301Z,12.90
2019-03-08T11:34:30.071Z,11.27
2019-03-08T11:37:07.352Z,12.07
2019-03-08T11:39:49.120Z,19.13
2019-03-08T11:42:31.971Z,14.83
2019-03-08T11:45:30.667Z,15.93
2019-03-08T11:48:08.965Z,13.17
2019-03-08T11:50:58.047Z,17.70
2019-03-08T11:53:45.826Z,16.70
2019-03-08T11:56:42.035Z,12.27
2019-03-08T11:59:30.368Z,13.73
2019-03-08T12:02:12.132Z,22.13
2019-03-08T12:05:20.254Z,10.73
2019-03-08T12:08:09.953Z,14.70
2019-03-08T12:10:51.509Z,16.90
2019-03-08T12:13:34.434Z,17.23
2019-03-08T12:16:19.266Z,15.63
2019-03-08T12:18:57.728Z,15.97
2019-03-08T12:21:47.572Z,16.10
2019-03-08T12:24:28.951Z,9.50
2019-03-08T12:27:12.622Z,16.70
2019-03-08T12:30:01.300Z,16.57
2019-03-08T12:32:37.496Z,11.97
2019-03-08T12:35:16.377Z,17.03
2019-03-08T12:38:21.474Z,21.60
2019-03-08T12:41:14.446Z,13.80
2019-03-08T12:44:08.943Z,10.83
2019-03-08T12:47:07.511Z,15.90
2019-03-08T12:49:48.587Z,16.07
2019-03-08T12:52:25.705Z,14.83
2019-03-08T12:55:08.174Z,10.50
2019-03-08T12:58:00.934Z,19.47
2019-03-08T13:00:38.432Z,15.90
2019-03-08T13:03:18.179Z,20.30
2019-03-08T13:06:06.095Z,12.33
2019-03-08T13:08:52.671Z,11.83
2019-03-08T13:11:23.364Z,11.57
2019-03-08T13:13:55.688Z,11.40
2019-03-08T13:16:26.277Z,8.63
2019-03-08T13:18:57.043Z,14.53
2019-03-08T13:21:27.799Z,10.70
2019-03-08T13:23:59.899Z,11.90
2019-03-08T13:26:30.864Z,13.47
2019-03-08T13:29:01.488Z,8.63
2019-03-08T13:31:32.289Z,8.50
2019-03-08T13:34:02.861Z,14.70
2019-03-08T13:36:33.510Z,11.13
2019-03-08T13:39:07.112Z,15.73
2019-03-08T13:41:38.001Z,10.17
2019-03-08T13:44:08.901Z,19.10
2019-03-08T13:46:39.480Z,11.20
2019-03-08T13:49:10.260Z,12.77
2019-03-08T13:51:41.058Z,15.53
2019-03-08T13:54:11.772Z,18.33
2019-03-08T13:56:42.400Z,9.57
2019-03-08T13:59:13.021Z,17.23
2019-03-08T14:01:43.648Z,8.20
2019-03-08T14:04:14.449Z,10.13
2019-03-08T14:06:45.144Z,9.17
2019-03-08T14:09:15.792Z,7.40
2019-03-08T14:11:46.420Z,7.67
2019-03-08T14:14:17.053Z,7.90
2019-03-08T14:16:48.097Z,11.60
2019-03-08T14:19:18.694Z,13.50
2019-03-08T14:21:49.537Z,11.63
2019-03-08T14:24:20.188Z,13.73
2019-03-08T14:26:50.868Z,17.53
2019-03-08T14:29:22.322Z,7.07
2019-03-08T14:31:59.195Z,11.37
2019-03-08T14:34:29.832Z,8.50
2019-03-08T14:37:00.521Z,14.43
2019-03-08T14:39:32.176Z,12.90
2019-03-08T14:42:10.753Z,15.10
2019-03-08T14:44:46.908Z,19.67
2019-03-08T14:47:24.201Z,13.47
2019-03-08T14:49:55.295Z,13.17
2019-03-08T14:52:27.616Z,11.03
2019-03-08T14:55:00.049Z,17.50
2019-03-08T14:57:30.885Z,13.40
2019-03-08T15:00:01.733Z,13.30
2019-03-08T15:02:32.329Z,13.57
2019-03-08T15:05:10.823Z,11.90
2019-03-08T15:07:37.230Z,12.83
2019-03-08T15:10:08.369Z,13.97
2019-03-08T15:12:48.299Z,10.63
2019-03-08T15:15:12.787Z,13.40
2019-03-08T15:17:43.602Z,13.73
2019-03-08T15:20:15.967Z,19.90
2019-03-08T15:22:47.632Z,9.47
2019-03-08T15:25:18.260Z,15.30
2019-03-08T15:27:48.939Z,12.87
2019-03-08T15:30:19.709Z,15.43
2019-03-08T15:32:50.353Z,13.90
2019-03-08T15:35:21.441Z,13.50
2019-03-08T15:37:52.059Z,10.80
2019-03-08T15:40:22.946Z,17.60
2019-03-08T15:42:53.629Z,9.90
2019-03-08T15:45:24.359Z,16.60
2019-03-08T15:47:54.964Z,9.93
2019-03-08T15:50:25.876Z,5.23
2019-03-08T15:52:56.535Z,12.30
2019-03-08T15:55:28.559Z,8.20
2019-03-08T15:57:59.475Z,11.90
2019-03-08T16:00:30.048Z,7.90
2019-03-08T16:03:00.790Z,7.40
2019-03-08T16:05:31.489Z,14.60
2019-03-08T16:08:03.709Z,5.90
2019-03-08T16:10:34.493Z,23.20
2019-03-08T16:13:05.320Z,11.63
2019-03-08T16:15:36.097Z,10.53
2019-03-08T16:18:06.944Z,9.93
2019-03-08T16:20:38.522Z,7.93
2019-03-08T16:23:09.280Z,8.67
2019-03-08T16:25:40.547Z,14.40
2019-03-08T16:28:12.238Z,14.07
2019-03-08T16:30:47.435Z,7.03
2019-03-08T16:33:20.634Z,8.43
2019-03-08T16:36:11.972Z,6.23
2019-03-08T16:38:57.724Z,12.33
2019-03-08T16:41:43.312Z,11.83
2019-03-08T16:44:20.540Z,12.30
2019-03-08T16:46:59.707Z,11.60
2019-03-08T16:49:54.989Z,6.80
2019-03-08T16:52:53.408Z,5.00
2019-03-08T16:55:34.021Z,9.83
2019-03-08T16:58:22.819Z,15.90
2019-03-08T17:01:05.699Z,11.17
2019-03-08T17:04:01.245Z,7.17
2019-03-08T17:06:42.788Z,7.53
2019-03-08T17:09:25.423Z,10.53
2019-03-08T17:12:14.094Z,9.70
2019-03-08T17:14:51.704Z,8.83
2019-03-08T17:17:34.372Z,12.13
2019-03-08T17:20:24.769Z,18.23
2019-03-08T17:23:03.390Z,9.73
2019-03-08T17:25:46.469Z,13.47
2019-03-08T17:28:22.158Z,9.53
2019-03-08T17:31:11.433Z,10.73
2019-03-08T17:34:01.109Z,9.87
2019-03-08T17:36:43.556Z,13.97
2019-03-08T17:39:22.864Z,9.30
2019-03-08T17:42:12.594Z,9.87
2019-03-08T17:45:01.235Z,11.83
2019-03-08T17:47:50.960Z,15.37
2019-03-08T17:50:40.657Z,13.37
2019-03-08T17:53:26.488Z,16.20
2019-03-08T17:56:04.364Z,12.40
2019-03-08T17:59:03.077Z,19.30
2019-03-08T18:02:08.206Z,16.87
2019-03-08T18:04:49.331Z,14.40
2019-03-08T18:07:32.669Z,13.43
2019-03-08T18:10:20.971Z,21.73
2019-03-08T18:13:16.753Z,13.77
2019-03-08T18:16:09.478Z,13.77
2019-03-08T18:18:57.754Z,20.63
2019-03-08T18:21:50.559Z,16.47
2019-03-08T18:24:39.835Z,12.80
2019-03-08T18:27:32.441Z,14.27
2019-03-08T18:30:24.957Z,14.37
2019-03-08T18:33:20.459Z,10.10
2019-03-08T18:36:10.406Z,13.93
2019-03-08T18:38:47.593Z,16.77
2019-03-08T18:41:33.715Z,20.20
2019-03-08T18:44:22.133Z,16.63
2019-03-08T18:47:11.781Z,15.60
2019-03-08T18:49:58.815Z,17.67
2019-03-08T18:52:54.695Z,17.57
2019-03-08T18:55:33.225Z,16.17
2019-03-08T18:58:14.192Z,17.60
2019-03-08T19:01:06.924Z,14.63
2019-03-08T19:03:58.079Z,18.23
2019-03-08T19:06:54.201Z,11.50
2019-03-08T19:09:38.759Z,11.50
2019-03-08T19:12:26.675Z,19.50
2019-03-08T19:15:19.092Z,8.73
2019-03-08T19:18:08.713Z,11.20
2019-03-08T19:20:48.434Z,12.97
2019-03-08T19:23:25.111Z,15.73
2019-03-08T19:26:13.706Z,16.00
2019-03-08T19:29:13.235Z,10.00
2019-03-08T19:31:51.463Z,11.90
2019-03-08T19:34:40.005Z,11.30
2019-03-08T19:37:19.942Z,14.27
2019-03-08T19:40:14.369Z,9.67
2019-03-08T19:43:02.905Z,10.17
2019-03-08T19:45:43.976Z,8.30
2019-03-08T19:48:22.286Z,8.90
2019-03-08T19:51:11.114Z,12.13
2019-03-08T19:54:02.854Z,7.10
2019-03-08T19:56:48.024Z,10.53
2019-03-08T19:59:40.849Z,8.30
2019-03-08T20:02:17.479Z,11.80
2019-03-08T20:05:06.249Z,11.30
2019-03-08T20:07:59.011Z,8.93
2019-03-08T20:10:51.940Z,11.00
2019-03-08T20:13:40.492Z,9.33
2019-03-08T20:16:23.812Z,13.63
2019-03-08T20:19:07.685Z,12.63
2019-03-08T20:21:53.024Z,12.03
2019-03-08T20:24:38.951Z,19.27
2019-03-08T20:27:27.576Z,12.73
2019-03-08T20:30:20.348Z,15.33
2019-03-08T20:33:06.261Z,12.47
2019-03-08T20:35:45.681Z,14.70
2019-03-08T20:38:45.030Z,15.20
2019-03-08T20:41:23.253Z,19.63
2019-03-08T20:43:58.284Z,12.80
2019-03-08T20:46:35.204Z,12.90
2019-03-08T20:49:06.411Z,14.17
2019-03-08T20:51:37.052Z,13.23
2019-03-08T20:54:07.798Z,10.63
2019-03-08T20:56:38.372Z,19.87
2019-03-08T20:59:09.193Z,15.00
2019-03-08T21:01:39.886Z,14.03
2019-03-08T21:04:10.455Z,19.40
2019-03-08T21:06:41.000Z,18.07
2019-03-08T21:09:11.573Z,15.47
2019-03-08T21:11:42.304Z,15.67
2019-03-08T21:14:13.525Z,19.23
2019-03-08T21:16:44.126Z,14.10
2019-03-08T21:19:14.789Z,20.27
2019-03-08T21:21:45.313Z,17.33
2019-03-08T21:24:15.909Z,15.43
2019-03-08T21:26:46.644Z,13.07
2019-03-08T21:29:17.311Z,17.20
2019-03-08T21:31:47.996Z,14.10
2019-03-08T21:34:18.708Z,14.17
2019-03-08T21:36:49.392Z,15.97
2019-03-08T21:39:20.052Z,23.33
2019-03-08T21:41:50.660Z,23.63
2019-03-08T21:44:21.324Z,13.17
2019-03-08T21:46:52.213Z,17.60
2019-03-08T21:49:22.869Z,25.30
2019-03-08T21:51:53.461Z,17.83
2019-03-08T21:54:24.145Z,19.60
2019-03-08T21:56:54.916Z,17.20
2019-03-08T21:59:25.545Z,16.90
2019-03-08T22:01:56.161Z,13.80
2019-03-08T22:04:37.969Z,20.83
2019-03-08T22:07:08.813Z,13.60
2019-03-08T22:09:47.090Z,14.27
2019-03-08T22:12:17.712Z,13.33
2019-03-08T22:14:48.438Z,12.60
2019-03-08T22:17:19.020Z,16.03
2019-03-08T22:19:49.604Z,17.60
2019-03-08T22:22:20.433Z,14.90
2019-03-08T22:24:51.206Z,16.00
2019-03-08T22:27:21.851Z,14.07
2019-03-08T22:29:52.578Z,15.70
2019-03-08T22:32:23.191Z,15.40
2019-03-08T22:34:53.897Z,14.37
2019-03-08T22:37:24.597Z,12.90
2019-03-08T22:39:55.218Z,15.17
2019-03-08T22:42:26.400Z,20.73
2019-03-08T22:44:56.984Z,15.47
2019-03-08T22:47:27.956Z,13.07
2019-03-08T22:49:58.520Z,20.13
2019-03-08T22:52:29.135Z,18.20
2019-03-08T22:55:03.440Z,15.53
2019-03-08T22:57:33.377Z,18.82
2019-03-08T23:00:06.785Z,20.60
2019-03-08T23:02:37.397Z,13.95
2019-03-08T23:05:08.372Z,16.97
2019-03-08T23:07:38.993Z,13.93
2019-03-08T23:10:11.211Z,12.70
2019-03-08T23:12:41.894Z,13.90
2019-03-08T23:15:12.535Z,17.77
2019-03-08T23:17:43.098Z,12.87
2019-03-08T23:20:13.840Z,14.83
2019-03-08T23:22:44.507Z,15.68
2019-03-08T23:25:15.096Z,14.40
2019-03-08T23:27:51.236Z,13.50
2019-03-08T23:30:28.508Z,11.35
2019-03-08T23:32:59.104Z,11.55
2019-03-08T23:35:29.768Z,19.23
2019-03-08T23:38:00.587Z,13.32
2019-03-08T23:40:31.159Z,11.93
2019-03-08T23:43:02.037Z,11.35
2019-03-08T23:45:32.718Z,13.62
2019-03-08T23:48:03.385Z,12.73
2019-03-08T23:50:33.984Z,10.30
2019-03-08T23:53:04.702Z,11.10
2019-03-08T23:55:35.352Z,13.03
2019-03-08T23:58:05.930Z,17.30
